Time;durP1;ratioP1;P1;durP2;ratioP2;P2;SDS_P1;SDS_P2;PMS_P1;PMS_P2;Temp;Humidity;BMP_temperature;BMP_pressure;BME280_temperature;BME280_humidity;BME280_pressure;Samples;Min_cycle;Max_cycle;Signal;HPM_P1;HPM_P2
2021/08/16 00:00:37;;;;;;;10.43;7.90;;;;;;;19.31;94.45;98477.94;10334936;28;20185;-75
2021/08/16 00:05:56;;;;;;;10.57;8.37;;;;;;;19.32;93.56;98473.13;10335571;28;20208;-74
2021/08/16 00:11:15;;;;;;;9.27;8.37;;;;;;;19.34;93.46;98471.41;10333942;28;20189;-74
2021/08/16 00:16:35;;;;;;;13.60;8.20;;;;;;;19.34;93.09;98462.28;10335542;28;20177;-75
2021/08/16 00:21:54;;;;;;;8.57;7.70;;;;;;;19.33;94.18;98452.34;10335382;28;20208;-75
2021/08/16 00:27:12;;;;;;;8.47;7.17;;;;;;;19.29;93.31;98451.78;10333271;28;20213;-75
2021/08/16 00:32:31;;;;;;;10.80;8.40;;;;;;;19.27;95.39;98443.84;10333630;28;20213;-76
2021/08/16 00:37:51;;;;;;;9.30;6.77;;;;;;;19.14;96.41;98439.75;10333529;28;20189;-75
2021/08/16 00:43:10;;;;;;;9.83;7.60;;;;;;;19.08;96.34;98433.22;10331723;28;20225;-76
2021/08/16 00:48:29;;;;;;;8.00;7.20;;;;;;;18.96;97.51;98431.44;10333039;28;20284;-75
2021/08/16 00:53:48;;;;;;;9.47;8.07;;;;;;;18.86;98.11;98431.94;10334161;28;20311;-76
2021/08/16 00:59:11;;;;;;;7.30;6.80;;;;;;;18.82;98.50;98420.94;10332867;28;20185;-76
2021/08/16 01:04:31;;;;;;;9.47;8.20;;;;;;;18.80;98.38;98417.88;10332989;28;20292;-76
2021/08/16 01:09:50;;;;;;;9.70;7.70;;;;;;;18.79;98.13;98419.09;10331542;28;20539;-75
2021/08/16 01:15:12;;;;;;;14.53;7.67;;;;;;;18.81;98.37;98415.84;10332586;28;20538;-75
2021/08/16 01:20:31;;;;;;;8.10;7.30;;;;;;;18.81;97.86;98411.06;10332534;28;20585;-76
2021/08/16 01:25:50;;;;;;;8.03;7.23;;;;;;;18.79;99.39;98418.31;10330810;28;20216;-75
2021/08/16 01:31:10;;;;;;;8.37;7.53;;;;;;;18.60;100.00;98417.59;10332118;28;20189;-75
2021/08/16 01:36:29;;;;;;;10.80;8.00;;;;;;;18.56;100.00;98413.44;10332195;28;20181;-75
2021/08/16 01:41:48;;;;;;;12.43;7.20;;;;;;;18.55;100.00;98415.47;10333757;28;20217;-75
2021/08/16 01:47:07;;;;;;;8.47;7.10;;;;;;;18.60;100.00;98402.91;10340775;28;20240;-75
2021/08/16 01:52:26;;;;;;;10.40;8.40;;;;;;;18.61;99.97;98396.09;10340921;28;20208;-76
2021/08/16 01:57:45;;;;;;;8.77;7.87;;;;;;;18.58;100.00;98397.03;10339677;28;20260;-75
2021/08/16 02:03:05;;;;;;;8.23;6.90;;;;;;;18.60;100.00;98394.56;10339294;28;20193;-75
2021/08/16 02:08:24;;;;;;;10.30;7.17;;;;;;;18.62;100.00;98392.84;10340603;28;20189;-75
2021/08/16 02:13:43;;;;;;;7.80;7.03;;;;;;;18.57;100.00;98396.28;10339041;28;20182;-75
2021/08/16 02:19:02;;;;;;;9.20;7.80;;;;;;;18.53;100.00;98392.88;10340033;28;20178;-75
2021/08/16 02:24:21;;;;;;;10.47;8.30;;;;;;;18.50;100.00;98391.00;10339567;28;20672;-75
2021/08/16 02:29:40;;;;;;;9.63;8.00;;;;;;;18.53;100.00;98384.50;10339549;28;20644;-74
2021/08/16 02:34:59;;;;;;;9.50;8.60;;;;;;;18.41;100.00;98381.16;10339224;28;20216;-74
2021/08/16 02:40:18;;;;;;;8.53;7.63;;;;;;;18.45;100.00;98374.94;10336961;28;20622;-76
2021/08/16 02:45:37;;;;;;;20.67;8.23;;;;;;;18.54;100.00;98382.47;10337644;28;20213;-76
2021/08/16 02:50:56;;;;;;;8.63;7.60;;;;;;;18.43;100.00;98391.34;10338437;28;20687;-75
2021/08/16 02:56:15;;;;;;;7.90;7.10;;;;;;;18.49;100.00;98406.19;10336704;28;20581;-76
2021/08/16 03:01:34;;;;;;;9.27;7.93;;;;;;;18.42;100.00;98400.16;10337349;28;20217;-76
2021/08/16 03:06:53;;;;;;;9.23;8.27;;;;;;;18.45;100.00;98408.34;10336924;28;20201;-76
2021/08/16 03:12:12;;;;;;;8.00;7.20;;;;;;;18.53;100.00;98397.69;10335988;28;20178;-76
2021/08/16 03:17:31;;;;;;;10.47;9.37;;;;;;;18.47;100.00;98408.66;10336901;28;20173;-76
2021/08/16 03:22:50;;;;;;;10.37;8.83;;;;;;;18.45;100.00;98422.28;10337598;28;20178;-75
2021/08/16 03:28:09;;;;;;;11.63;8.87;;;;;;;18.41;100.00;98427.22;10336068;28;20177;-75
2021/08/16 03:33:28;;;;;;;12.20;8.40;;;;;;;18.24;100.00;98418.91;10336021;28;20181;-75
2021/08/16 03:38:47;;;;;;;13.83;9.30;;;;;;;18.10;100.00;98433.41;10335753;28;20189;-75
2021/08/16 03:44:06;;;;;;;10.83;8.43;;;;;;;18.03;100.00;98430.94;10333895;28;20229;-76
2021/08/16 03:49:25;;;;;;;11.17;10.07;;;;;;;18.08;100.00;98442.25;10336523;28;20205;-75
2021/08/16 03:54:44;;;;;;;11.27;10.07;;;;;;;18.24;100.00;98432.84;10335355;28;20181;-75
2021/08/16 04:00:09;;;;;;;12.83;9.17;;;;;;;18.44;100.00;98431.88;10335935;28;20602;-76
2021/08/16 04:05:28;;;;;;;10.63;8.93;;;;;;;18.38;100.00;98443.34;10334870;28;20209;-76
2021/08/16 04:10:47;;;;;;;11.73;9.13;;;;;;;18.15;100.00;98453.06;10334523;28;20182;-76
2021/08/16 04:16:06;;;;;;;13.13;9.20;;;;;;;18.07;100.00;98465.00;10335302;28;20632;-76
2021/08/16 04:21:25;;;;;;;11.73;8.70;;;;;;;17.97;100.00;98453.06;10335340;28;20173;-74
2021/08/16 04:26:44;;;;;;;11.60;9.47;;;;;;;17.94;100.00;98451.22;10333357;28;20205;-76
2021/08/16 04:32:03;;;;;;;10.47;9.47;;;;;;;17.95;100.00;98468.69;10333780;28;20189;-75
2021/08/16 04:37:22;;;;;;;10.77;8.70;;;;;;;17.94;100.00;98475.47;10333751;28;20189;-76
2021/08/16 04:42:41;;;;;;;11.67;9.37;;;;;;;17.97;100.00;98469.75;10308881;28;20225;-74
2021/08/16 04:48:00;;;;;;;15.73;9.63;;;;;;;18.17;100.00;98492.34;10327304;28;20201;-75
2021/08/16 04:53:19;;;;;;;11.37;8.70;;;;;;;18.41;100.00;98487.75;10334386;28;20181;-75
2021/08/16 04:58:38;;;;;;;8.70;7.80;;;;;;;18.45;100.00;98485.59;10329757;28;20272;-76
2021/08/16 05:03:57;;;;;;;9.00;8.03;;;;;;;18.62;100.00;98482.00;10333662;28;20241;-76
2021/08/16 05:09:16;;;;;;;13.00;8.30;;;;;;;18.74;100.00;98492.16;10333684;28;20185;-76
2021/08/16 05:14:35;;;;;;;13.43;7.80;;;;;;;18.83;100.00;98503.31;10333702;28;20173;-75
2021/08/16 05:19:54;;;;;;;9.13;8.20;;;;;;;18.86;100.00;98507.94;10332604;28;20287;-75
2021/08/16 05:25:15;;;;;;;10.40;7.80;;;;;;;19.03;100.00;98517.53;10331344;28;20209;-76
2021/08/16 05:30:34;;;;;;;9.13;8.10;;;;;;;18.99;100.00;98516.91;10333501;28;20205;-76
2021/08/16 05:35:53;;;;;;;10.53;8.80;;;;;;;18.86;100.00;98519.09;10333218;28;20185;-76
2021/08/16 05:41:12;;;;;;;9.30;7.60;;;;;;;18.93;100.00;98527.13;10331764;28;20224;-76
2021/08/16 05:46:31;;;;;;;11.87;8.57;;;;;;;18.88;100.00;98530.56;10331466;28;20216;-76
2021/08/16 05:51:50;;;;;;;9.10;8.10;;;;;;;19.10;100.00;98535.97;10332617;28;20189;-75
2021/08/16 05:57:09;;;;;;;9.63;8.47;;;;;;;19.29;99.34;98532.66;10331729;28;20177;-76
2021/08/16 06:02:31;;;;;;;10.00;8.13;;;;;;;19.72;95.65;98552.47;10332616;28;20185;-75
2021/08/16 06:07:50;;;;;;;12.30;8.20;;;;;;;19.90;93.28;98552.38;10331802;28;20260;-75
2021/08/16 06:13:09;;;;;;;10.43;8.40;;;;;;;20.09;91.71;98559.41;10331337;28;20223;-75
2021/08/16 06:18:27;;;;;;;8.43;7.53;;;;;;;20.33;90.45;98569.34;10332579;28;20197;-75
2021/08/16 06:23:47;;;;;;;9.30;7.43;;;;;;;20.46;86.83;98580.28;10330981;28;20213;-76
2021/08/16 06:29:07;;;;;;;12.50;7.07;;;;;;;20.72;84.98;98586.91;10335835;28;20189;-75
2021/08/16 06:34:26;;;;;;;11.03;6.80;;;;;;;20.97;82.95;98595.53;10338508;28;20177;-75
2021/08/16 06:39:46;;;;;;;13.13;6.57;;;;;;;21.11;82.04;98600.38;10338192;28;20264;-76
2021/08/16 06:45:06;;;;;;;7.43;6.60;;;;;;;21.28;80.99;98607.81;10338454;28;20232;-75
2021/08/16 06:50:25;;;;;;;8.37;5.67;;;;;;;21.14;80.95;98605.03;10338800;28;20205;-75
2021/08/16 06:55:47;;;;;;;9.37;5.97;;;;;;;20.89;81.30;98611.91;10335004;28;20193;-75
2021/08/16 07:01:06;;;;;;;7.40;6.00;;;;;;;20.71;80.48;98618.91;10337103;28;20178;-75
2021/08/16 07:06:25;;;;;;;9.43;6.30;;;;;;;20.97;80.12;98609.53;10338053;28;20236;-76
2021/08/16 07:11:44;;;;;;;8.73;5.77;;;;;;;21.15;77.38;98618.53;10336819;28;20264;-75
2021/08/16 07:17:03;;;;;;;6.13;4.83;;;;;;;20.99;75.36;98618.97;10338052;28;20173;-76
2021/08/16 07:22:22;;;;;;;5.83;4.27;;;;;;;20.85;71.83;98616.16;10336729;28;20169;-76
2021/08/16 07:27:41;;;;;;;9.53;4.23;;;;;;;21.22;69.69;98614.59;10335757;28;20205;-77
2021/08/16 07:33:01;;;;;;;17.57;11.30;;;;;;;21.36;67.89;98619.41;10337012;28;20188;-76
2021/08/16 07:38:19;;;;;;;6.80;4.63;;;;;;;21.15;68.05;98631.75;10336200;28;20620;-76
2021/08/16 07:43:40;;;;;;;7.20;4.47;;;;;;;20.97;66.09;98620.72;10335208;28;20229;-76
2021/08/16 07:48:59;;;;;;;6.53;3.70;;;;;;;20.88;65.99;98637.56;10336595;28;20205;-77
2021/08/16 07:54:17;;;;;;;3.93;3.43;;;;;;;20.63;66.26;98643.63;10336635;28;20169;-76
2021/08/16 07:59:36;;;;;;;4.37;3.43;;;;;;;20.83;65.11;98657.81;10336372;28;20173;-76
2021/08/16 08:04:55;;;;;;;6.63;2.80;;;;;;;21.33;61.75;98643.53;10334452;28;20220;-76
2021/08/16 08:10:16;;;;;;;4.47;3.07;;;;;;;22.27;59.78;98643.84;10334636;28;20213;-76
2021/08/16 08:15:35;;;;;;;4.20;2.87;;;;;;;22.28;57.07;98656.59;10334726;28;20169;-74
2021/08/16 08:20:54;;;;;;;8.43;2.87;;;;;;;22.05;57.98;98648.34;10335529;28;20169;-76
2021/08/16 08:26:13;;;;;;;5.33;2.60;;;;;;;21.93;57.85;98655.00;10333606;28;20292;-76
2021/08/16 08:31:32;;;;;;;5.60;2.50;;;;;;;21.65;55.09;98647.44;10334707;28;20560;-75
2021/08/16 08:36:51;;;;;;;4.20;2.10;;;;;;;21.79;54.62;98665.00;10334810;28;20586;-76
2021/08/16 08:42:11;;;;;;;3.43;2.40;;;;;;;22.58;53.99;98675.66;10333098;28;20221;-76
2021/08/16 08:47:32;;;;;;;4.17;2.27;;;;;;;22.18;53.19;98668.41;10333707;28;20619;-76
2021/08/16 08:52:54;;;;;;;5.80;2.23;;;;;;;21.71;55.54;98668.66;10334039;28;20181;-75
2021/08/16 08:58:13;;;;;;;8.37;2.50;;;;;;;22.08;55.22;98673.34;10332862;28;20173;-74
2021/08/16 09:03:33;;;;;;;2.93;2.17;;;;;;;23.27;51.13;98660.69;10333754;28;20663;-76
2021/08/16 09:08:52;;;;;;;3.47;1.97;;;;;;;23.27;50.46;98663.50;10333003;28;20636;-75
2021/08/16 09:14:10;;;;;;;5.20;1.77;;;;;;;23.17;49.40;98662.16;10332069;28;20189;-76
2021/08/16 09:19:29;;;;;;;3.93;1.90;;;;;;;23.29;48.91;98661.00;10333429;28;20546;-76
2021/08/16 09:25:03;;;;;;;3.30;1.80;;;;;;;23.11;48.70;98664.88;10331929;28;20204;-76
2021/08/16 09:30:38;;;;;;;8.30;1.97;;;;;;;23.32;48.68;98666.38;10333542;28;20219;-76
2021/08/16 09:35:58;;;;;;;4.90;2.30;;;;;;;23.34;50.98;98670.22;10332367;28;20186;-77
2021/08/16 09:41:25;;;;;;;4.80;1.80;;;;;;;23.43;49.74;98661.66;10331779;28;20221;-75
2021/08/16 09:46:44;;;;;;;3.10;1.97;;;;;;;23.95;46.85;98671.63;10331099;28;20256;-76
2021/08/16 09:52:06;;;;;;;6.13;2.33;;;;;;;23.69;48.15;98673.66;10331893;28;20532;-75
2021/08/16 09:57:27;;;;;;;2.50;2.30;;;;;;;23.74;49.03;98678.59;10331791;28;20169;-76
2021/08/16 10:02:46;;;;;;;6.43;2.40;;;;;;;23.03;51.21;98689.03;10334613;28;20264;-75
2021/08/16 10:08:07;;;;;;;3.33;2.03;;;;;;;23.07;50.96;98681.16;10340594;28;20258;-75
2021/08/16 10:13:27;;;;;;;5.17;2.90;;;;;;;23.34;49.95;98673.03;10337755;28;20185;-76
2021/08/16 10:19:02;;;;;;;3.80;1.80;;;;;;;23.98;49.86;98675.47;10340204;28;20189;-75
2021/08/16 10:24:28;;;;;;;2.87;1.70;;;;;;;23.37;48.13;98679.72;10340001;28;20209;-75
2021/08/16 10:29:47;;;;;;;4.73;1.67;;;;;;;22.87;49.01;98680.34;10339711;28;20631;-75
2021/08/16 10:35:18;;;;;;;2.53;1.67;;;;;;;22.74;49.46;98691.91;10338689;28;20208;-76
2021/08/16 10:40:52;;;;;;;3.30;1.87;;;;;;;22.83;49.55;98685.41;10337772;28;20660;-76
2021/08/16 10:46:20;;;;;;;5.20;2.03;;;;;;;22.12;50.42;98693.56;10332937;28;20209;-76
2021/08/16 10:51:45;;;;;;;3.80;1.80;;;;;;;22.18;51.03;98679.59;10301893;28;20210;-75
2021/08/16 10:57:04;;;;;;;5.53;1.80;;;;;;;22.10;52.13;98676.44;10337228;28;20201;-76
2021/08/16 11:02:23;;;;;;;3.70;2.43;;;;;;;22.33;51.87;98677.59;10337634;28;20178;-75
2021/08/16 11:07:42;;;;;;;4.23;2.23;;;;;;;22.49;51.46;98686.97;10337749;28;20610;-75
2021/08/16 11:13:08;;;;;;;3.40;2.00;;;;;;;22.77;52.39;98678.97;10336983;28;20268;-75
2021/08/16 11:18:27;;;;;;;2.70;1.40;;;;;;;22.07;52.82;98677.41;10338076;28;20181;-75
2021/08/16 11:23:58;;;;;;;2.53;2.33;;;;;;;22.18;53.24;98671.97;10337559;28;20201;-76
2021/08/16 11:29:22;;;;;;;2.33;1.60;;;;;;;22.29;54.60;98680.56;10335633;28;20538;-76
2021/08/16 11:34:50;;;;;;;2.40;1.73;;;;;;;22.01;53.70;98673.75;10337228;28;20190;-76
2021/08/16 11:40:10;;;;;;;5.53;2.10;;;;;;;22.21;52.73;98671.00;10334780;28;20596;-75
2021/08/16 11:45:36;;;;;;;2.37;1.67;;;;;;;22.04;53.82;98672.00;10336528;28;20237;-75
2021/08/16 11:50:56;;;;;;;3.00;1.77;;;;;;;21.59;52.95;98666.16;10308335;28;20194;-76
2021/08/16 11:56:16;;;;;;;8.53;2.17;;;;;;;21.52;54.64;98664.50;10294925;28;20268;-75
2021/08/16 12:01:35;;;;;;;2.43;1.60;;;;;;;21.93;53.68;98663.41;10336014;28;20181;-75
2021/08/16 12:06:55;;;;;;;4.30;1.80;;;;;;;21.92;54.67;98673.09;10327476;28;21252;-75
2021/08/16 12:12:19;;;;;;;3.13;2.00;;;;;;;21.59;55.66;98672.53;10334709;28;20190;-75
2021/08/16 12:17:38;;;;;;;2.17;1.90;;;;;;;21.08;56.69;98663.66;10334892;28;20260;-76
2021/08/16 12:22:57;;;;;;;2.80;2.07;;;;;;;21.36;56.35;98650.19;10332496;28;20709;-75
2021/08/16 12:28:16;;;;;;;4.37;1.80;;;;;;;21.32;55.28;98650.38;10333269;28;20608;-76
2021/08/16 12:33:35;;;;;;;2.93;1.90;;;;;;;21.52;55.80;98652.50;10333580;28;20185;-76
2021/08/16 12:39:00;;;;;;;3.77;1.90;;;;;;;22.61;54.03;98637.47;10302045;28;20186;-77
2021/08/16 12:44:21;;;;;;;4.90;2.00;;;;;;;22.08;53.88;98634.13;10294919;28;20229;-75
2021/08/16 12:49:41;;;;;;;6.70;2.13;;;;;;;22.32;52.04;98639.59;10293789;28;20178;-75
2021/08/16 12:55:00;;;;;;;5.30;2.20;;;;;;;21.62;53.76;98621.16;10292861;28;20181;-76
2021/08/16 13:00:20;;;;;;;2.63;1.97;;;;;;;22.30;52.47;98614.84;10293915;28;20190;-75
2021/08/16 13:05:39;;;;;;;4.30;2.20;;;;;;;22.75;51.20;98597.34;10326562;28;20208;-75
2021/08/16 13:11:01;;;;;;;3.50;2.10;;;;;;;22.56;52.51;98605.28;10332464;28;20182;-74
2021/08/16 13:16:20;;;;;;;3.63;2.07;;;;;;;22.40;53.28;98602.25;10333581;28;20169;-75
2021/08/16 13:21:38;;;;;;;2.83;1.97;;;;;;;22.16;53.17;98607.25;10333641;28;20628;-76
2021/08/16 13:26:58;;;;;;;5.10;2.20;;;;;;;22.12;52.13;98615.09;10331742;28;20213;-76
2021/08/16 13:32:17;;;;;;;4.37;2.50;;;;;;;21.90;53.76;98603.53;10332993;28;20193;-75
2021/08/16 13:37:36;;;;;;;2.37;1.73;;;;;;;21.94;53.00;98604.13;10336034;28;20193;-74
2021/08/16 13:42:54;;;;;;;5.10;1.80;;;;;;;22.20;52.74;98599.41;10339851;28;20221;-74
2021/08/16 13:48:14;;;;;;;2.03;1.83;;;;;;;22.79;51.25;98592.28;10340156;28;20181;-75
2021/08/16 13:53:32;;;;;;;5.47;2.20;;;;;;;22.30;53.03;98594.44;10340323;28;20189;-74
2021/08/16 13:58:51;;;;;;;3.43;2.13;;;;;;;22.71;52.54;98591.16;10339809;28;20177;-76
2021/08/16 14:04:11;;;;;;;2.77;2.10;;;;;;;23.15;53.02;98581.22;10340241;28;20683;-75
2021/08/16 14:09:29;;;;;;;3.20;2.17;;;;;;;23.26;51.64;98583.41;10340117;28;20189;-75
2021/08/16 14:14:48;;;;;;;3.30;2.47;;;;;;;22.75;54.27;98583.31;10338829;28;20224;-74
2021/08/16 14:20:08;;;;;;;6.83;2.30;;;;;;;22.09;54.64;98602.06;10340157;28;20264;-76
2021/08/16 14:25:27;;;;;;;3.87;2.40;;;;;;;21.95;55.23;98614.06;10337465;28;20213;-75
2021/08/16 14:30:47;;;;;;;2.20;2.00;;;;;;;21.76;55.44;98598.00;10338903;28;20209;-74
2021/08/16 14:36:07;;;;;;;6.13;2.67;;;;;;;21.72;56.89;98578.59;10339557;28;20549;-73
2021/08/16 14:41:27;;;;;;;4.47;2.40;;;;;;;22.06;56.02;98565.84;10336945;28;20221;-75
2021/08/16 14:46:46;;;;;;;4.73;2.10;;;;;;;22.02;57.04;98577.25;10337882;28;20213;-74
2021/08/16 14:52:09;;;;;;;4.20;2.70;;;;;;;22.64;55.37;98594.41;10338298;28;20186;-74
2021/08/16 14:57:28;;;;;;;4.77;2.70;;;;;;;23.80;52.00;98592.31;10337858;28;20177;-75
2021/08/16 15:02:47;;;;;;;2.70;2.50;;;;;;;24.19;50.63;98593.34;10338671;28;20178;-75
2021/08/16 15:08:06;;;;;;;4.00;2.50;;;;;;;23.04;51.54;98577.53;10337590;28;20181;-76
2021/08/16 15:13:25;;;;;;;4.80;2.70;;;;;;;22.53;53.95;98574.66;10336660;28;20181;-75
2021/08/16 15:18:44;;;;;;;3.20;2.90;;;;;;;21.98;53.95;98568.25;10332192;28;20193;-76
2021/08/16 15:24:03;;;;;;;4.90;2.70;;;;;;;21.94;55.24;98578.91;10337580;28;20205;-76
2021/08/16 15:29:34;;;;;;;4.60;2.97;;;;;;;21.65;55.56;98583.81;10336332;28;20178;-76
2021/08/16 15:34:53;;;;;;;5.07;2.60;;;;;;;21.56;56.97;98599.94;10336437;28;20182;-76
2021/08/16 15:40:13;;;;;;;4.10;2.67;;;;;;;21.74;56.44;98615.25;10334737;28;20170;-75
2021/08/16 15:45:33;;;;;;;5.50;3.10;;;;;;;21.70;56.98;98631.50;10336315;28;20668;-75
2021/08/16 15:50:52;;;;;;;6.10;3.50;;;;;;;21.69;57.76;98615.94;10335698;28;20624;-75
2021/08/16 15:56:11;;;;;;;3.53;2.80;;;;;;;21.50;58.08;98604.63;10334115;28;20264;-75
2021/08/16 16:01:30;;;;;;;6.03;2.97;;;;;;;22.00;57.15;98604.22;10334387;28;20181;-76
2021/08/16 16:06:50;;;;;;;6.87;3.10;;;;;;;22.18;57.16;98596.31;10335681;28;20220;-76
2021/08/16 16:12:10;;;;;;;7.03;3.17;;;;;;;21.87;57.59;98598.94;10333527;28;20185;-76
2021/08/16 16:17:29;;;;;;;2.90;2.20;;;;;;;21.47;59.07;98591.63;10335747;28;20232;-76
2021/08/16 16:22:48;;;;;;;3.57;2.00;;;;;;;21.33;59.68;98592.38;10334583;28;20204;-75
2021/08/16 16:28:08;;;;;;;4.53;2.10;;;;;;;21.12;59.75;98605.47;10332547;28;20240;-77
2021/08/16 16:33:27;;;;;;;5.50;2.43;;;;;;;20.93;61.45;98598.53;10334230;28;20183;-77
2021/08/16 16:38:46;;;;;;;3.90;2.50;;;;;;;20.81;62.06;98592.41;10334401;28;20177;-76
2021/08/16 16:44:05;;;;;;;5.63;2.90;;;;;;;20.62;62.45;98599.41;10299860;28;20770;-77
2021/08/16 16:49:24;;;;;;;2.20;1.90;;;;;;;20.75;63.07;98599.91;10334377;28;20549;-76
2021/08/16 16:54:43;;;;;;;2.47;2.27;;;;;;;20.84;62.59;98600.63;10332008;28;20541;-76
2021/08/16 17:00:03;;;;;;;3.03;2.40;;;;;;;20.80;63.54;98605.63;10298057;28;20186;-77
2021/08/16 17:05:22;;;;;;;3.10;2.20;;;;;;;20.74;63.42;98610.31;10293421;28;20668;-77
2021/08/16 17:10:43;;;;;;;6.40;2.60;;;;;;;20.71;63.80;98628.03;10292066;28;20181;-76
2021/08/16 17:16:02;;;;;;;1.50;1.40;;;;;;;20.12;71.97;98670.19;10293438;28;20182;-76
2021/08/16 17:21:22;;;;;;;1.37;0.90;;;;;;;18.22;88.16;98724.88;10292215;28;20633;-75
2021/08/16 17:26:41;;;;;;;2.03;1.30;;;;;;;16.99;99.15;98734.25;10290042;28;20292;-77
2021/08/16 17:32:00;;;;;;;2.83;2.57;;;;;;;16.06;100.00;98754.81;10292961;28;20177;-78
2021/08/16 17:37:19;;;;;;;4.13;3.83;;;;;;;15.73;100.00;98758.97;10291556;28;20261;-79
2021/08/16 17:42:38;;;;;;;4.67;4.10;;;;;;;15.73;100.00;98758.97;10315779;28;20229;-77
2021/08/16 17:47:57;;;;;;;6.30;5.13;;;;;;;15.60;100.00;98766.47;10332600;28;20208;-78
2021/08/16 17:53:16;;;;;;;5.80;4.70;;;;;;;15.56;100.00;98771.34;10331280;28;20197;-80
2021/08/16 17:58:36;;;;;;;6.93;5.00;;;;;;;15.37;100.00;98780.59;10324804;28;20202;-81
2021/08/16 18:03:55;;;;;;;8.90;6.27;;;;;;;15.15;100.00;98785.16;10332790;28;20284;-81
2021/08/16 18:09:14;;;;;;;11.03;7.03;;;;;;;15.08;100.00;98805.94;10332873;28;20808;-83
2021/08/16 18:14:34;;;;;;;11.17;7.60;;;;;;;14.89;100.00;98809.59;10331634;28;20177;-80
2021/08/16 18:19:53;;;;;;;13.33;9.10;;;;;;;14.75;100.00;98832.09;10331664;28;20268;-81
2021/08/16 18:25:14;;;;;;;15.53;9.70;;;;;;;14.62;100.00;98820.94;10335640;28;20726;-82
2021/08/16 18:30:34;;;;;;;16.80;10.60;;;;;;;14.66;100.00;98827.16;10339836;28;20572;-81
2021/08/16 18:35:54;;;;;;;15.50;9.90;;;;;;;14.63;100.00;98835.53;10339623;28;20173;-84
2021/08/16 18:41:14;;;;;;;13.97;10.07;;;;;;;14.64;100.00;98850.94;10336790;28;20683;-83
2021/08/16 18:46:35;;;;;;;21.37;11.37;;;;;;;14.57;100.00;98871.28;10337733;28;20558;-83
2021/08/16 18:51:55;;;;;;;16.57;11.10;;;;;;;14.57;100.00;98895.41;10338156;28;20177;-82
2021/08/16 18:57:14;;;;;;;18.90;11.07;;;;;;;14.56;100.00;98904.94;10337549;28;20181;-80
2021/08/16 19:02:33;;;;;;;21.70;13.23;;;;;;;14.61;100.00;98910.75;10338661;28;20181;-80
2021/08/16 19:07:52;;;;;;;18.23;11.43;;;;;;;14.60;100.00;98927.78;10337984;28;20235;-79
2021/08/16 19:13:11;;;;;;;20.90;12.57;;;;;;;14.56;100.00;98943.69;10336007;28;20177;-79
2021/08/16 19:18:30;;;;;;;19.90;11.17;;;;;;;14.44;100.00;98960.97;10337060;28;20648;-79
2021/08/16 19:23:49;;;;;;;21.30;12.37;;;;;;;14.44;100.00;98970.03;10337767;28;20201;-81
2021/08/16 19:29:08;;;;;;;23.87;13.10;;;;;;;14.41;100.00;98987.50;10336248;28;20576;-82
2021/08/16 19:34:27;;;;;;;20.60;12.80;;;;;;;14.34;100.00;98989.63;10336367;28;20657;-80
2021/08/16 19:39:46;;;;;;;27.27;12.33;;;;;;;14.33;100.00;98990.84;10335072;28;20213;-80
2021/08/16 19:45:07;;;;;;;23.73;14.20;;;;;;;14.38;100.00;99009.69;10335184;28;20237;-81
2021/08/16 19:50:27;;;;;;;17.27;10.23;;;;;;;14.28;100.00;99016.25;10335678;28;20520;-79
2021/08/16 19:55:47;;;;;;;19.73;10.37;;;;;;;14.25;100.00;99014.31;10335293;28;20181;-80
2021/08/16 20:01:06;;;;;;;12.80;7.77;;;;;;;14.26;100.00;99038.03;10336385;28;20185;-80
2021/08/16 20:06:25;;;;;;;11.07;7.90;;;;;;;14.26;100.00;99048.28;10335875;28;20209;-79
2021/08/16 20:11:44;;;;;;;14.60;7.67;;;;;;;14.24;100.00;99062.56;10333809;28;20256;-80
2021/08/16 20:17:03;;;;;;;12.20;6.60;;;;;;;14.33;100.00;99078.63;10334750;28;20566;-80
2021/08/16 20:22:22;;;;;;;16.83;6.93;;;;;;;14.25;100.00;99074.44;10334342;28;20550;-80
2021/08/16 20:27:41;;;;;;;12.87;7.20;;;;;;;14.32;100.00;99082.59;10333388;28;20217;-79
2021/08/16 20:33:00;;;;;;;7.47;5.97;;;;;;;14.30;100.00;99079.47;10334010;28;20189;-80
2021/08/16 20:38:19;;;;;;;4.50;4.10;;;;;;;14.03;100.00;99104.41;10334062;28;20201;-80
2021/08/16 20:43:39;;;;;;;3.60;3.00;;;;;;;13.62;100.00;99092.06;10332919;28;20225;-79
2021/08/16 20:48:58;;;;;;;6.03;3.60;;;;;;;13.54;100.00;99094.16;10333170;28;20173;-78
2021/08/16 20:54:17;;;;;;;7.73;3.87;;;;;;;13.43;100.00;99087.25;10333512;28;20165;-80
2021/08/16 20:59:36;;;;;;;5.30;3.67;;;;;;;13.37;100.00;99075.06;10293071;28;20298;-80
2021/08/16 21:04:55;;;;;;;4.43;3.10;;;;;;;13.22;100.00;99078.47;10292685;28;20252;-83
2021/08/16 21:10:14;;;;;;;4.10;3.37;;;;;;;13.19;100.00;99057.22;10291420;28;20650;-81
2021/08/16 21:15:35;;;;;;;3.97;3.13;;;;;;;13.10;100.00;99048.66;10292684;28;20193;-80
2021/08/16 21:20:54;;;;;;;6.97;2.83;;;;;;;13.09;100.00;99058.13;10292408;28;20556;-80
2021/08/16 21:26:12;;;;;;;3.90;3.50;;;;;;;13.12;100.00;99071.13;10326530;28;20221;-80
2021/08/16 21:31:33;;;;;;;4.13;3.73;;;;;;;13.11;100.00;99081.41;10332478;28;20177;-79
2021/08/16 21:36:52;;;;;;;3.97;3.50;;;;;;;13.03;100.00;99093.75;10332504;28;20256;-82
2021/08/16 21:42:11;;;;;;;5.53;3.47;;;;;;;13.03;100.00;99104.00;10330586;28;20245;-81
2021/08/16 21:47:30;;;;;;;10.40;4.80;;;;;;;12.97;100.00;99102.91;10331624;28;20217;-80
2021/08/16 21:52:50;;;;;;;5.97;4.03;;;;;;;13.05;100.00;99105.13;10331691;28;20649;-80
2021/08/16 21:58:09;;;;;;;6.83;4.03;;;;;;;12.98;100.00;99113.53;10332380;28;20197;-81
2021/08/16 22:03:38;;;;;;;9.97;3.43;;;;;;;12.92;100.00;99111.66;10340752;28;20213;-81
2021/08/16 22:08:57;;;;;;;5.67;3.43;;;;;;;12.83;100.00;99111.34;10339585;28;20182;-81
2021/08/16 22:14:16;;;;;;;6.83;4.00;;;;;;;12.65;100.00;99105.25;10338340;28;20181;-83
2021/08/16 22:19:35;;;;;;;4.57;3.17;;;;;;;12.56;100.00;99118.75;10340439;28;20173;-82
2021/08/16 22:24:54;;;;;;;7.00;3.03;;;;;;;12.38;100.00;99115.38;10338495;28;20584;-80
2021/08/16 22:30:13;;;;;;;4.33;3.60;;;;;;;12.26;100.00;99113.16;10339964;28;20527;-82
2021/08/16 22:35:33;;;;;;;6.77;3.70;;;;;;;12.27;100.00;99127.72;10338683;28;20180;-81
2021/08/16 22:40:52;;;;;;;4.23;3.63;;;;;;;12.24;100.00;99139.56;10337169;28;20237;-81
2021/08/16 22:46:11;;;;;;;12.00;3.97;;;;;;;12.13;100.00;99142.44;10337932;28;20216;-81
2021/08/16 22:51:30;;;;;;;5.47;3.97;;;;;;;12.14;100.00;99146.75;10338213;28;20212;-81
2021/08/16 22:56:49;;;;;;;5.13;3.87;;;;;;;12.06;100.00;99159.03;10337322;28;20189;-81
2021/08/16 23:02:10;;;;;;;5.10;4.00;;;;;;;12.23;100.00;99155.34;10338768;28;20181;-80
2021/08/16 23:07:29;;;;;;;7.83;3.67;;;;;;;12.03;100.00;99157.09;10338165;28;20201;-81
2021/08/16 23:12:48;;;;;;;12.97;4.57;;;;;;;11.85;100.00;99150.16;10337084;28;20520;-81
2021/08/16 23:18:07;;;;;;;8.13;4.70;;;;;;;11.74;100.00;99151.44;10337275;28;20182;-81
2021/08/16 23:23:26;;;;;;;11.20;4.73;;;;;;;11.61;100.00;99155.84;10337682;28;20181;-80
2021/08/16 23:28:45;;;;;;;8.40;5.03;;;;;;;11.63;100.00;99159.00;10336725;28;20178;-80
2021/08/16 23:34:05;;;;;;;8.90;6.03;;;;;;;11.54;100.00;99153.16;10337626;28;20277;-80
2021/08/16 23:39:24;;;;;;;7.30;4.73;;;;;;;11.39;100.00;99154.38;10336371;28;20170;-81
2021/08/16 23:44:43;;;;;;;14.00;4.77;;;;;;;11.40;100.00;99169.72;10335417;28;20241;-80
2021/08/16 23:50:03;;;;;;;10.17;5.77;;;;;;;11.46;100.00;99165.38;10336048;28;20182;-79
2021/08/16 23:55:23;;;;;;;14.37;6.53;;;;;;;11.56;100.00;99168.09;10334253;28;20197;-79
